Time;durP1;ratioP1;P1;durP2;ratioP2;P2;SDS_P1;SDS_P2;PMS_P1;PMS_P2;Temp;Humidity;BMP_temperature;BMP_pressure;BME280_temperature;BME280_humidity;BME280_pressure;Samples;Min_cycle;Max_cycle;Signal;HPM_P1;HPM_P2
2022/03/06 06:00:52;;;;;;;17.20;15.40;;;2.90;97.20;;;;;;1728181;28;20266;-81
2022/03/06 06:01:43;;;;;;;17.60;15.75;;;2.90;97.20;;;;;;1728322;28;20209;-81
2022/03/06 06:02:35;;;;;;;17.60;15.80;;;2.90;97.20;;;;;;1728264;28;20197;-81
2022/03/06 06:03:26;;;;;;;19.05;16.40;;;2.90;97.20;;;;;;1728261;28;20217;-81
2022/03/06 06:04:18;;;;;;;17.73;15.73;;;2.90;97.20;;;;;;1728247;28;20196;-81
2022/03/06 06:05:10;;;;;;;17.13;15.43;;;2.90;97.20;;;;;;1728364;28;20251;-81
2022/03/06 06:06:01;;;;;;;18.25;15.50;;;2.90;97.20;;;;;;1728293;28;20196;-81
2022/03/06 06:06:52;;;;;;;17.17;15.38;;;2.90;97.20;;;;;;1728249;28;20790;-81
2022/03/06 06:07:44;;;;;;;17.13;15.33;;;2.90;97.20;;;;;;1728229;28;20218;-81
2022/03/06 06:08:34;;;;;;;17.35;15.60;;;2.90;97.20;;;;;;1728479;28;20204;-81
2022/03/06 06:09:26;;;;;;;18.00;16.10;;;2.90;97.20;;;;;;1734787;28;20219;-81
2022/03/06 06:10:18;;;;;;;18.10;15.93;;;2.90;97.20;;;;;;1735064;28;20236;-82
2022/03/06 06:11:10;;;;;;;18.17;16.27;;;2.90;97.20;;;;;;1735296;28;20674;-81
2022/03/06 06:12:00;;;;;;;17.30;15.55;;;3.00;97.20;;;;;;1735002;28;20203;-81
2022/03/06 06:12:52;;;;;;;17.93;16.10;;;3.00;97.20;;;;;;1735081;28;20228;-81
2022/03/06 06:13:43;;;;;;;18.58;16.67;;;3.00;97.20;;;;;;1735127;28;20207;-81
2022/03/06 06:14:35;;;;;;;19.27;17.07;;;3.00;97.20;;;;;;1734919;28;20199;-81
2022/03/06 06:15:25;;;;;;;16.60;14.93;;;3.00;97.20;;;;;;1735189;28;20199;-81
2022/03/06 06:16:18;;;;;;;18.40;16.40;;;2.90;97.20;;;;;;1735165;28;20195;-81
2022/03/06 06:17:09;;;;;;;17.85;16.00;;;3.00;97.20;;;;;;1734995;28;20216;-81
2022/03/06 06:18:01;;;;;;;18.53;16.63;;;2.90;97.20;;;;;;1734803;28;20218;-81
2022/03/06 06:18:52;;;;;;;19.02;16.90;;;2.90;97.20;;;;;;1734925;28;20231;-81
2022/03/06 06:19:43;;;;;;;16.43;14.73;;;2.90;97.20;;;;;;1734886;28;20705;-81
2022/03/06 06:20:36;;;;;;;19.27;16.65;;;2.80;97.20;;;;;;1734932;28;20231;-81
2022/03/06 06:21:28;;;;;;;17.83;16.02;;;2.80;97.20;;;;;;1735049;28;20802;-81
2022/03/06 06:22:18;;;;;;;17.45;15.65;;;2.80;97.20;;;;;;1734929;28;20210;-81
2022/03/06 06:23:10;;;;;;;19.50;17.23;;;2.80;97.20;;;;;;1734896;28;20203;-81
2022/03/06 06:24:01;;;;;;;18.60;16.70;;;2.70;97.20;;;;;;1735081;28;20204;-81
2022/03/06 06:24:53;;;;;;;18.63;16.73;;;2.70;97.20;;;;;;1734972;28;20204;-81
2022/03/06 06:25:43;;;;;;;18.40;16.50;;;2.70;97.20;;;;;;1730218;28;20193;-81
2022/03/06 06:26:35;;;;;;;18.10;16.17;;;2.80;97.20;;;;;;1728099;28;20205;-81
2022/03/06 06:27:26;;;;;;;17.70;15.73;;;2.80;97.20;;;;;;1728200;28;20204;-82
2022/03/06 06:28:18;;;;;;;17.88;15.93;;;2.80;97.20;;;;;;1727962;28;20235;-81
2022/03/06 06:29:09;;;;;;;17.60;15.80;;;2.80;97.20;;;;;;1727984;28;20730;-81
2022/03/06 06:30:01;;;;;;;18.13;16.25;;;2.80;97.20;;;;;;1728994;28;20205;-81
2022/03/06 06:30:52;;;;;;;18.33;16.42;;;2.80;97.20;;;;;;1729287;28;20225;-81
2022/03/06 06:31:45;;;;;;;18.23;16.43;;;2.80;97.20;;;;;;1728292;28;20291;-81
2022/03/06 06:32:36;;;;;;;17.70;15.85;;;2.80;97.20;;;;;;1728104;28;20266;-81
2022/03/06 06:33:28;;;;;;;18.00;16.17;;;2.80;97.20;;;;;;1728041;28;20204;-81
2022/03/06 06:34:19;;;;;;;19.20;17.30;;;2.80;97.20;;;;;;1728113;28;20698;-81
2022/03/06 06:35:10;;;;;;;20.27;18.00;;;2.80;97.20;;;;;;1728067;28;20630;-81
2022/03/06 06:36:01;;;;;;;21.17;18.30;;;2.80;97.20;;;;;;1728193;28;20207;-81
2022/03/06 06:36:57;;;;;;;21.87;19.03;;;2.80;97.20;;;;;;1727981;28;20201;-81
2022/03/06 06:37:48;;;;;;;20.65;18.35;;;2.80;97.20;;;;;;1728073;28;20867;-81
2022/03/06 06:38:40;;;;;;;21.50;19.20;;;2.80;97.20;;;;;;1727733;28;20546;-82
2022/03/06 06:39:31;;;;;;;19.83;17.73;;;2.80;97.20;;;;;;1727936;28;20208;-81
2022/03/06 06:40:22;;;;;;;22.77;20.37;;;2.80;97.20;;;;;;1727873;28;20223;-81
2022/03/06 06:41:13;;;;;;;25.20;21.30;;;2.80;97.20;;;;;;1727835;28;20516;-81
2022/03/06 06:42:06;;;;;;;24.33;21.70;;;2.80;97.20;;;;;;1733030;28;20546;-81
2022/03/06 06:42:57;;;;;;;24.50;21.90;;;2.80;97.20;;;;;;1734571;28;20211;-81
2022/03/06 06:43:49;;;;;;;23.17;20.73;;;2.80;97.20;;;;;;1734922;28;20275;-81
2022/03/06 06:44:40;;;;;;;23.88;21.17;;;2.80;97.20;;;;;;1734856;28;20200;-81
2022/03/06 06:45:31;;;;;;;23.93;21.53;;;2.90;97.20;;;;;;1734740;28;20234;-81
2022/03/06 06:46:23;;;;;;;24.08;21.70;;;2.90;97.20;;;;;;1734865;28;20831;-82
2022/03/06 06:47:16;;;;;;;24.00;21.50;;;3.00;97.20;;;;;;1734770;28;20310;-81
2022/03/06 06:48:07;;;;;;;23.65;21.25;;;2.90;97.20;;;;;;1734623;28;20760;-82
2022/03/06 06:48:58;;;;;;;27.57;23.10;;;3.00;97.20;;;;;;1735002;28;20203;-81
2022/03/06 06:49:49;;;;;;;23.98;21.55;;;3.00;97.20;;;;;;1734683;28;20230;-81
2022/03/06 06:50:41;;;;;;;25.10;22.60;;;2.90;97.20;;;;;;1734756;28;20238;-81
2022/03/06 06:51:31;;;;;;;25.55;22.85;;;2.90;97.20;;;;;;1734787;28;20705;-81
2022/03/06 06:52:23;;;;;;;24.70;22.20;;;2.90;97.20;;;;;;1734653;28;20556;-81
2022/03/06 06:53:14;;;;;;;23.55;21.10;;;2.90;97.20;;;;;;1734700;28;20207;-81
2022/03/06 06:54:06;;;;;;;24.40;21.90;;;2.90;97.20;;;;;;1734680;28;20202;-81
2022/03/06 06:54:57;;;;;;;23.65;21.25;;;3.00;97.20;;;;;;1734688;28;20691;-81
2022/03/06 06:55:48;;;;;;;24.80;22.30;;;3.00;97.20;;;;;;1734759;28;20774;-81
2022/03/06 06:56:39;;;;;;;24.50;21.95;;;3.00;97.20;;;;;;1734936;28;20210;-81
2022/03/06 06:57:32;;;;;;;25.37;22.67;;;3.00;97.20;;;;;;1734834;28;20689;-81
2022/03/06 06:58:23;;;;;;;23.90;21.60;;;3.00;97.20;;;;;;1732708;28;20200;-80
2022/03/06 06:59:15;;;;;;;24.83;22.23;;;3.10;97.20;;;;;;1734730;28;20200;-81
2022/03/06 07:00:07;;;;;;;24.10;21.70;;;3.10;97.20;;;;;;1734774;28;20695;-81
2022/03/06 07:00:59;;;;;;;26.50;22.77;;;3.10;97.20;;;;;;1734587;28;20255;-81
2022/03/06 07:01:50;;;;;;;24.27;21.63;;;3.10;97.20;;;;;;1734790;28;20211;-81
2022/03/06 07:02:44;;;;;;;24.40;21.90;;;3.10;97.20;;;;;;1734836;28;20204;-81
2022/03/06 07:03:35;;;;;;;25.50;22.90;;;3.10;97.20;;;;;;1734604;28;20295;-81
2022/03/06 07:04:27;;;;;;;25.53;23.03;;;3.20;97.20;;;;;;1734788;28;20208;-81
2022/03/06 07:05:17;;;;;;;24.65;21.98;;;3.20;97.20;;;;;;1734641;28;20235;-81
2022/03/06 07:06:09;;;;;;;23.37;21.13;;;3.20;97.20;;;;;;1734747;28;20210;-81
2022/03/06 07:07:00;;;;;;;24.25;21.55;;;3.20;97.20;;;;;;1734603;28;20213;-81
2022/03/06 07:07:53;;;;;;;23.57;21.00;;;3.30;97.20;;;;;;1734790;28;20290;-80
2022/03/06 07:08:43;;;;;;;23.90;21.10;;;3.30;97.20;;;;;;1734494;28;20648;-80
2022/03/06 07:09:35;;;;;;;24.10;21.70;;;3.30;97.20;;;;;;1734478;28;20269;-80
2022/03/06 07:10:26;;;;;;;22.67;20.33;;;3.30;97.20;;;;;;1734767;28;20204;-80
2022/03/06 07:11:17;;;;;;;22.93;20.53;;;3.30;97.20;;;;;;1728198;28;20648;-80
2022/03/06 07:12:09;;;;;;;24.00;21.33;;;3.40;97.20;;;;;;1727172;28;20197;-80
2022/03/06 07:13:01;;;;;;;21.75;19.65;;;3.40;97.20;;;;;;1727750;28;20220;-80
2022/03/06 07:13:51;;;;;;;22.02;19.83;;;3.50;97.20;;;;;;1727790;28;20757;-80
2022/03/06 07:14:43;;;;;;;21.50;19.13;;;3.50;97.20;;;;;;1729069;28;20651;-80
2022/03/06 07:15:34;;;;;;;21.02;18.77;;;3.50;97.20;;;;;;1727801;28;20247;-80
2022/03/06 07:16:26;;;;;;;22.60;20.30;;;3.50;97.20;;;;;;1727816;28;20200;-81
2022/03/06 07:17:17;;;;;;;22.08;19.60;;;3.50;97.20;;;;;;1727807;28;21029;-80
2022/03/06 07:18:10;;;;;;;22.00;19.70;;;3.60;97.20;;;;;;1727479;28;20571;-80
2022/03/06 07:19:01;;;;;;;21.67;19.48;;;3.60;97.20;;;;;;1727745;28;20475;-80
2022/03/06 07:19:52;;;;;;;21.90;19.60;;;3.70;97.20;;;;;;1727777;28;20288;-80
2022/03/06 07:20:43;;;;;;;21.65;19.38;;;3.70;97.20;;;;;;1727745;28;20243;-81
2022/03/06 07:21:35;;;;;;;22.53;20.17;;;3.70;97.20;;;;;;1727750;28;20196;-80
2022/03/06 07:22:26;;;;;;;22.83;20.50;;;3.80;97.20;;;;;;1727756;28;20454;-80
2022/03/06 07:23:17;;;;;;;21.40;19.20;;;3.80;97.20;;;;;;1727694;28;20279;-81
2022/03/06 07:24:08;;;;;;;22.17;19.95;;;3.80;97.20;;;;;;1727739;28;20231;-80
2022/03/06 07:25:00;;;;;;;21.73;19.50;;;3.80;97.20;;;;;;1727790;28;20211;-80
2022/03/06 07:25:50;;;;;;;21.10;19.00;;;3.90;97.20;;;;;;1727752;28;20250;-80
2022/03/06 07:26:42;;;;;;;22.50;20.13;;;3.90;97.20;;;;;;1727905;28;20200;-80
2022/03/06 07:27:33;;;;;;;20.85;18.45;;;3.90;97.20;;;;;;1727898;28;20242;-80
2022/03/06 07:28:24;;;;;;;20.20;18.20;;;4.00;97.20;;;;;;1727543;28;20208;-80
2022/03/06 07:29:15;;;;;;;24.30;19.05;;;4.00;97.20;;;;;;1727671;28;20204;-80
2022/03/06 07:30:08;;;;;;;20.53;18.43;;;4.10;97.20;;;;;;1727791;28;20200;-80
2022/03/06 07:30:59;;;;;;;20.05;18.05;;;4.10;97.20;;;;;;1728297;28;20216;-80
2022/03/06 07:31:51;;;;;;;18.90;17.00;;;4.20;97.20;;;;;;1727894;28;20660;-80
2022/03/06 07:32:42;;;;;;;19.27;17.38;;;4.20;97.20;;;;;;1732931;28;20573;-80
2022/03/06 07:33:35;;;;;;;19.37;17.33;;;4.30;97.20;;;;;;1734542;28;20589;-80
2022/03/06 07:34:25;;;;;;;27.95;17.48;;;4.30;97.20;;;;;;1728073;28;20904;-80
2022/03/06 07:35:20;;;;;;;18.60;16.50;;;4.40;97.20;;;;;;1727666;28;20205;-80
2022/03/06 07:36:11;;;;;;;18.92;17.00;;;4.40;97.20;;;;;;1727681;28;20231;-81
2022/03/06 07:37:03;;;;;;;18.00;16.27;;;4.40;97.20;;;;;;1727679;28;20193;-80
2022/03/06 07:37:55;;;;;;;18.60;16.55;;;4.50;97.20;;;;;;1727719;28;20204;-80
2022/03/06 07:38:45;;;;;;;18.85;16.95;;;4.50;97.20;;;;;;1727399;28;20204;-80
2022/03/06 07:39:37;;;;;;;19.03;17.10;;;4.50;97.20;;;;;;1727536;28;20200;-80
2022/03/06 07:40:28;;;;;;;18.38;16.58;;;4.60;97.20;;;;;;1727683;28;20845;-80
2022/03/06 07:41:19;;;;;;;20.17;16.60;;;4.60;97.20;;;;;;1727644;28;20587;-81
2022/03/06 07:42:10;;;;;;;18.63;16.67;;;4.60;97.20;;;;;;1727685;28;20208;-81
2022/03/06 07:43:02;;;;;;;18.13;16.33;;;4.70;97.20;;;;;;1727641;28;20308;-80
2022/03/06 07:43:53;;;;;;;18.00;16.15;;;4.70;97.20;;;;;;1727760;28;20209;-80
2022/03/06 07:44:45;;;;;;;17.87;16.10;;;4.80;97.20;;;;;;1727705;28;20204;-81
2022/03/06 07:45:36;;;;;;;17.17;15.48;;;4.80;97.20;;;;;;1731588;28;20199;-81
2022/03/06 07:46:27;;;;;;;18.83;16.97;;;4.80;97.20;;;;;;1728121;28;20199;-80
2022/03/06 07:47:18;;;;;;;17.92;16.20;;;4.90;97.20;;;;;;1727408;28;20482;-80
2022/03/06 07:48:10;;;;;;;17.43;15.60;;;4.90;97.20;;;;;;1727155;28;20196;-80
2022/03/06 07:49:02;;;;;;;19.33;17.23;;;5.00;97.20;;;;;;1727706;28;20235;-80
2022/03/06 07:49:54;;;;;;;18.00;16.10;;;5.00;97.20;;;;;;1727633;28;20718;-80
2022/03/06 07:50:46;;;;;;;17.83;16.02;;;5.00;97.20;;;;;;1727476;28;20254;-80
2022/03/06 07:51:37;;;;;;;18.20;16.48;;;5.10;97.20;;;;;;1727657;28;20262;-80
2022/03/06 07:52:29;;;;;;;18.13;16.35;;;5.10;97.20;;;;;;1727596;28;20228;-80
2022/03/06 07:53:21;;;;;;;18.52;16.60;;;5.20;97.20;;;;;;1727607;28;20270;-80
2022/03/06 07:54:14;;;;;;;18.65;16.75;;;5.20;97.20;;;;;;1727604;28;20240;-80
2022/03/06 07:55:08;;;;;;;18.38;15.57;;;5.20;97.20;;;;;;1726958;28;20200;-80
2022/03/06 07:55:58;;;;;;;18.70;16.30;;;5.20;97.20;;;;;;1727542;28;20215;-80
2022/03/06 07:56:50;;;;;;;17.60;15.90;;;5.30;97.20;;;;;;1727741;28;20277;-80
2022/03/06 07:57:41;;;;;;;19.02;17.00;;;5.30;97.20;;;;;;1727561;28;20265;-80
2022/03/06 07:58:33;;;;;;;19.07;17.17;;;5.30;97.20;;;;;;1727043;28;20208;-80
2022/03/06 07:59:25;;;;;;;18.90;16.85;;;5.30;97.20;;;;;;1727648;28;20215;-81
2022/03/06 08:00:17;;;;;;;17.55;15.75;;;5.40;97.20;;;;;;1727295;28;20199;-80
2022/03/06 08:01:08;;;;;;;17.90;16.10;;;5.40;97.20;;;;;;1724943;28;20238;-81
2022/03/06 08:02:00;;;;;;;18.30;16.47;;;5.40;97.20;;;;;;1723437;28;20190;-81
2022/03/06 08:02:50;;;;;;;18.40;16.58;;;5.50;97.20;;;;;;1734200;28;20666;-81
2022/03/06 08:03:42;;;;;;;17.50;15.60;;;5.50;97.20;;;;;;1734453;28;20546;-80
2022/03/06 08:04:34;;;;;;;17.88;16.05;;;5.60;97.20;;;;;;1734577;28;20206;-81
2022/03/06 08:05:26;;;;;;;19.55;17.33;;;5.60;97.20;;;;;;1734346;28;20523;-81
2022/03/06 08:06:16;;;;;;;18.77;16.75;;;5.60;97.20;;;;;;1734405;28;20208;-80
2022/03/06 08:07:08;;;;;;;18.33;16.47;;;5.60;97.20;;;;;;1734606;28;20693;-80
2022/03/06 08:07:59;;;;;;;18.40;16.52;;;5.70;97.20;;;;;;1734521;28;20199;-80
2022/03/06 08:08:51;;;;;;;17.87;15.97;;;5.70;97.20;;;;;;1734337;28;20223;-80
2022/03/06 08:09:41;;;;;;;18.88;16.88;;;5.70;97.20;;;;;;1734548;28;20230;-80
2022/03/06 08:10:33;;;;;;;18.13;16.27;;;5.80;97.20;;;;;;1734106;28;20224;-81
2022/03/06 08:11:24;;;;;;;19.13;16.92;;;5.80;97.20;;;;;;1734427;28;20207;-81
2022/03/06 08:12:16;;;;;;;17.00;14.93;;;5.90;97.20;;;;;;1734545;28;20227;-80
2022/03/06 08:13:06;;;;;;;16.90;15.10;;;5.90;97.20;;;;;;1734252;28;20214;-80
2022/03/06 08:13:58;;;;;;;18.43;16.50;;;5.90;97.20;;;;;;1734323;28;20205;-80
2022/03/06 08:14:49;;;;;;;19.25;15.95;;;5.90;97.20;;;;;;1732255;28;20235;-79
2022/03/06 08:15:40;;;;;;;17.77;15.63;;;6.00;97.20;;;;;;1734538;28;20211;-79
2022/03/06 08:16:31;;;;;;;16.80;15.05;;;6.00;97.20;;;;;;1728731;28;20551;-79
2022/03/06 08:17:23;;;;;;;18.37;16.37;;;6.00;97.20;;;;;;1720936;28;20318;-79
2022/03/06 08:18:14;;;;;;;17.60;15.55;;;6.10;97.20;;;;;;1724026;28;20459;-79
2022/03/06 08:19:06;;;;;;;18.57;15.90;;;6.10;97.20;;;;;;1734279;28;20294;-80
2022/03/06 08:19:58;;;;;;;18.27;16.05;;;6.20;97.20;;;;;;1734422;28;20222;-79
2022/03/06 08:20:50;;;;;;;17.95;15.40;;;6.20;97.20;;;;;;1734403;28;20307;-79
2022/03/06 08:21:42;;;;;;;18.27;16.48;;;6.20;97.20;;;;;;1734526;28;20207;-79
2022/03/06 08:22:34;;;;;;;18.27;16.40;;;6.30;97.20;;;;;;1734369;28;20200;-79
2022/03/06 08:23:25;;;;;;;16.02;14.43;;;6.30;97.20;;;;;;1734540;28;20200;-80
2022/03/06 08:24:17;;;;;;;18.37;16.37;;;6.30;97.20;;;;;;1734334;28;20204;-80
2022/03/06 08:25:09;;;;;;;18.70;16.63;;;6.40;97.20;;;;;;1734334;28;20203;-79
2022/03/06 08:26:01;;;;;;;18.13;15.77;;;6.40;97.20;;;;;;1734639;28;20202;-80
2022/03/06 08:26:51;;;;;;;19.58;17.35;;;6.50;97.20;;;;;;1734640;28;20227;-80
2022/03/06 08:27:43;;;;;;;18.17;16.27;;;6.50;97.20;;;;;;1734673;28;20200;-80
2022/03/06 08:28:34;;;;;;;16.95;15.25;;;6.50;97.20;;;;;;1728821;28;20219;-80
2022/03/06 08:29:26;;;;;;;16.67;15.00;;;6.50;97.20;;;;;;1720937;28;20304;-80
2022/03/06 08:30:17;;;;;;;17.70;15.80;;;6.60;97.20;;;;;;1720651;28;20456;-80
2022/03/06 08:31:09;;;;;;;17.00;15.27;;;6.60;97.20;;;;;;1720924;28;20204;-81
2022/03/06 08:32:00;;;;;;;18.90;16.48;;;6.60;97.20;;;;;;1729059;28;20447;-80
2022/03/06 08:32:51;;;;;;;18.63;16.47;;;6.60;97.20;;;;;;1727663;28;20204;-80
2022/03/06 08:33:42;;;;;;;17.67;15.85;;;6.70;97.20;;;;;;1727539;28;20276;-80
2022/03/06 08:34:34;;;;;;;17.97;16.10;;;6.70;97.20;;;;;;1727489;28;20219;-80
2022/03/06 08:35:26;;;;;;;18.60;15.93;;;6.70;97.20;;;;;;1727640;28;20207;-80
2022/03/06 08:36:18;;;;;;;16.75;15.02;;;6.80;97.20;;;;;;1728117;28;20226;-80
2022/03/06 08:37:09;;;;;;;17.88;15.55;;;6.80;97.20;;;;;;1727140;28;20208;-80
2022/03/06 08:38:01;;;;;;;17.37;15.53;;;6.80;97.20;;;;;;1727221;28;20256;-82
2022/03/06 08:38:52;;;;;;;17.33;15.48;;;6.90;97.20;;;;;;1727459;28;20582;-80
2022/03/06 08:39:43;;;;;;;17.20;15.17;;;6.90;97.20;;;;;;1727686;28;20573;-80
2022/03/06 08:40:35;;;;;;;17.38;15.57;;;7.00;97.20;;;;;;1727728;28;20262;-80
2022/03/06 08:41:27;;;;;;;16.20;14.50;;;7.00;97.20;;;;;;1727709;28;20295;-80
2022/03/06 08:42:18;;;;;;;18.83;15.45;;;7.10;97.20;;;;;;1727550;28;20242;-80
2022/03/06 08:43:09;;;;;;;17.60;14.97;;;7.10;97.20;;;;;;1727750;28;20215;-80
2022/03/06 08:44:00;;;;;;;17.67;15.77;;;7.10;97.20;;;;;;1729530;28;20220;-80
2022/03/06 08:44:52;;;;;;;17.10;15.30;;;7.20;97.20;;;;;;1731291;28;20548;-80
2022/03/06 08:45:43;;;;;;;17.58;15.77;;;7.20;97.20;;;;;;1728512;28;20444;-81
2022/03/06 08:46:34;;;;;;;17.77;15.73;;;7.20;97.20;;;;;;1727773;28;20291;-81
2022/03/06 08:47:25;;;;;;;20.55;16.25;;;7.30;97.20;;;;;;1727962;28;20450;-81
2022/03/06 08:48:17;;;;;;;17.77;15.93;;;7.30;97.20;;;;;;1728477;28;20239;-81
2022/03/06 08:49:08;;;;;;;17.98;16.05;;;7.40;97.20;;;;;;1727952;28;20435;-83
2022/03/06 08:50:00;;;;;;;17.73;15.87;;;7.40;97.20;;;;;;1728303;28;20189;-81
2022/03/06 08:50:52;;;;;;;17.83;16.02;;;7.50;97.20;;;;;;1728565;28;20239;-80
2022/03/06 08:51:44;;;;;;;18.02;15.88;;;7.50;97.20;;;;;;1728230;28;20209;-80
2022/03/06 08:52:35;;;;;;;19.70;16.02;;;7.60;96.80;;;;;;1728206;28;20254;-80
2022/03/06 08:53:27;;;;;;;16.67;14.97;;;7.60;96.60;;;;;;1728528;28;20231;-81
2022/03/06 08:54:17;;;;;;;17.25;15.55;;;7.70;96.40;;;;;;1728912;28;20454;-81
2022/03/06 08:55:10;;;;;;;16.03;14.43;;;7.70;96.20;;;;;;1728940;28;20641;-81
2022/03/06 08:56:01;;;;;;;17.77;14.60;;;7.80;96.10;;;;;;1728249;28;20447;-81
2022/03/06 08:56:53;;;;;;;17.53;14.40;;;7.80;95.90;;;;;;1728249;28;20243;-81
2022/03/06 08:57:43;;;;;;;16.67;14.07;;;7.80;95.60;;;;;;1728188;28;20443;-81
2022/03/06 08:58:36;;;;;;;17.20;15.00;;;7.90;95.40;;;;;;1727685;28;20234;-79
2022/03/06 08:59:26;;;;;;;17.13;14.73;;;7.90;94.90;;;;;;1727957;28;20302;-80
2022/03/06 09:00:18;;;;;;;17.90;15.33;;;7.90;94.70;;;;;;1727633;28;20205;-81
2022/03/06 09:01:09;;;;;;;17.08;14.70;;;8.00;94.70;;;;;;1728573;28;20215;-81
2022/03/06 09:02:01;;;;;;;15.43;13.83;;;8.00;94.70;;;;;;1727731;28;20196;-81
2022/03/06 09:02:52;;;;;;;17.23;13.70;;;8.10;94.70;;;;;;1727765;28;20459;-80
2022/03/06 09:03:43;;;;;;;17.07;14.33;;;8.20;94.10;;;;;;1727964;28;20199;-82
2022/03/06 09:04:34;;;;;;;16.10;13.80;;;8.20;94.00;;;;;;1728271;28;20266;-81
2022/03/06 09:05:26;;;;;;;16.00;14.30;;;8.30;93.70;;;;;;1728000;28;20196;-81
2022/03/06 09:06:18;;;;;;;16.15;14.13;;;8.40;93.60;;;;;;1728421;28;20243;-81
2022/03/06 09:07:10;;;;;;;17.25;15.13;;;8.50;93.60;;;;;;1729109;28;20208;-81
2022/03/06 09:08:00;;;;;;;15.20;13.60;;;8.60;93.40;;;;;;1728868;28;20698;-82
2022/03/06 09:08:52;;;;;;;16.43;14.33;;;8.60;93.10;;;;;;1728834;28;20619;-80
2022/03/06 09:09:43;;;;;;;14.80;13.20;;;8.80;92.60;;;;;;1729153;28;20205;-80
2022/03/06 09:10:35;;;;;;;16.03;14.00;;;8.90;92.20;;;;;;1729303;28;20220;-79
2022/03/06 09:11:25;;;;;;;16.00;14.30;;;9.00;92.20;;;;;;1729104;28;20204;-82
2022/03/06 09:12:18;;;;;;;14.33;12.80;;;9.00;92.00;;;;;;1728860;28;20205;-81
2022/03/06 09:13:09;;;;;;;14.63;13.13;;;9.20;92.00;;;;;;1728954;28;20208;-82
2022/03/06 09:14:01;;;;;;;16.73;15.02;;;9.30;91.80;;;;;;1732300;28;20216;-82
2022/03/06 09:14:51;;;;;;;16.48;13.35;;;9.50;91.30;;;;;;1728984;28;20227;-82
2022/03/06 09:15:43;;;;;;;14.57;13.00;;;9.50;91.10;;;;;;1723582;28;20197;-81
2022/03/06 09:16:34;;;;;;;14.30;12.85;;;9.70;91.00;;;;;;1727926;28;20207;-83
2022/03/06 09:17:26;;;;;;;14.97;13.50;;;9.80;90.60;;;;;;1729207;28;20218;-82
2022/03/06 09:18:17;;;;;;;15.77;13.90;;;9.90;90.00;;;;;;1729547;28;20451;-84
2022/03/06 09:19:08;;;;;;;15.80;14.10;;;10.00;89.60;;;;;;1734233;28;20202;-85
2022/03/06 09:19:59;;;;;;;14.50;13.10;;;10.20;89.30;;;;;;1729702;28;20250;-82
2022/03/06 09:20:51;;;;;;;15.73;14.03;;;10.30;88.90;;;;;;1732131;28;20207;-82
2022/03/06 09:21:43;;;;;;;15.10;13.48;;;10.40;88.80;;;;;;1729385;28;20629;-81
2022/03/06 09:22:35;;;;;;;16.30;14.65;;;10.50;88.70;;;;;;1728758;28;20207;-82
2022/03/06 09:23:26;;;;;;;16.42;14.73;;;10.60;88.40;;;;;;1728945;28;20243;-82
2022/03/06 09:24:17;;;;;;;14.23;12.87;;;10.80;87.80;;;;;;1729857;28;20668;-82
2022/03/06 09:25:08;;;;;;;15.02;13.52;;;10.90;87.40;;;;;;1728773;28;20672;-82
2022/03/06 09:26:00;;;;;;;14.80;13.30;;;11.00;87.20;;;;;;1728828;28;20664;-82
2022/03/06 09:26:51;;;;;;;15.68;14.07;;;11.10;86.90;;;;;;1728874;28;20489;-83
2022/03/06 09:27:43;;;;;;;13.63;12.23;;;11.30;86.40;;;;;;1726828;28;20193;-84
2022/03/06 09:28:34;;;;;;;15.13;13.63;;;11.40;86.10;;;;;;1721766;28;20213;-83
2022/03/06 09:29:26;;;;;;;15.20;13.70;;;11.50;86.30;;;;;;1725273;28;20192;-82
2022/03/06 09:30:16;;;;;;;15.55;14.00;;;11.60;86.10;;;;;;1729087;28;20869;-82
2022/03/06 09:31:08;;;;;;;15.83;13.43;;;11.80;86.00;;;;;;1728594;28;20266;-84
2022/03/06 09:31:59;;;;;;;15.07;13.55;;;11.90;85.40;;;;;;1728545;28;20197;-83
2022/03/06 09:32:51;;;;;;;14.47;13.03;;;12.00;85.20;;;;;;1728762;28;20196;-83
2022/03/06 09:33:41;;;;;;;14.23;12.85;;;12.20;84.70;;;;;;1728585;28;20235;-83
2022/03/06 09:34:33;;;;;;;14.30;12.83;;;12.30;84.40;;;;;;1728668;28;20211;-84
2022/03/06 09:35:24;;;;;;;14.57;13.18;;;12.40;84.00;;;;;;1728817;28;20209;-83
2022/03/06 09:36:16;;;;;;;15.20;13.70;;;12.60;83.60;;;;;;1728517;28;20213;-82
2022/03/06 09:37:08;;;;;;;16.40;14.70;;;12.70;83.50;;;;;;1728668;28;20726;-84
2022/03/06 09:38:00;;;;;;;14.48;13.07;;;12.80;83.20;;;;;;1728760;28;20269;-83
2022/03/06 09:38:50;;;;;;;16.10;14.57;;;12.90;83.10;;;;;;1728623;28;20680;-83
2022/03/06 09:39:42;;;;;;;16.20;14.50;;;13.10;83.00;;;;;;1728512;28;20192;-83
2022/03/06 09:40:33;;;;;;;14.25;12.75;;;13.20;82.70;;;;;;1728641;28;20231;-82
2022/03/06 09:41:27;;;;;;;15.00;13.50;;;13.30;82.60;;;;;;1728609;28;20689;-82
2022/03/06 09:42:18;;;;;;;13.95;12.55;;;13.50;82.10;;;;;;1728701;28;20451;-82
2022/03/06 09:43:14;;;;;;;14.73;13.20;;;13.60;81.50;;;;;;1728586;28;20626;-82
2022/03/06 09:44:07;;;;;;;14.75;13.27;;;13.70;81.00;;;;;;1728839;28;20693;-83
2022/03/06 09:45:04;;;;;;;13.38;12.07;;;13.80;80.60;;;;;;1728620;28;20621;-83
2022/03/06 09:46:04;;;;;;;14.18;12.82;;;13.90;80.30;;;;;;1722334;28;20205;-83
2022/03/06 09:46:56;;;;;;;14.63;13.23;;;14.00;79.90;;;;;;1729770;28;20201;-83
2022/03/06 09:47:47;;;;;;;14.95;13.45;;;14.10;79.60;;;;;;1730819;28;20244;-82
2022/03/06 09:48:39;;;;;;;13.70;12.40;;;14.20;79.50;;;;;;1729788;28;20204;-82
2022/03/06 09:49:30;;;;;;;14.88;13.48;;;14.30;79.40;;;;;;1730706;28;20196;-84
2022/03/06 09:50:21;;;;;;;14.27;12.90;;;14.40;79.20;;;;;;1729771;28;20193;-82
2022/03/06 09:51:12;;;;;;;12.85;11.70;;;14.50;78.70;;;;;;1730001;28;20248;-83
2022/03/06 09:52:04;;;;;;;13.70;12.40;;;14.60;78.60;;;;;;1729859;28;20188;-83
2022/03/06 09:52:56;;;;;;;14.52;13.15;;;14.70;78.50;;;;;;1730517;28;20587;-82
2022/03/06 09:53:49;;;;;;;14.50;13.20;;;14.80;78.10;;;;;;1731748;28;20682;-80
2022/03/06 09:54:39;;;;;;;14.48;13.07;;;14.90;77.80;;;;;;1729502;28;20208;-80
2022/03/06 09:55:31;;;;;;;14.63;13.07;;;15.00;77.70;;;;;;1729622;28;20200;-83
2022/03/06 09:56:22;;;;;;;14.18;12.88;;;15.20;77.50;;;;;;1730087;28;20470;-82
2022/03/06 09:57:19;;;;;;;14.70;13.20;;;15.20;76.70;;;;;;1731724;28;20202;-82
2022/03/06 09:58:10;;;;;;;15.15;13.75;;;15.30;76.00;;;;;;1729958;28;20491;-82
2022/03/06 09:59:02;;;;;;;15.00;13.50;;;15.40;75.80;;;;;;1729025;28;20258;-82
2022/03/06 09:59:53;;;;;;;15.65;13.13;;;15.40;76.10;;;;;;1729646;28;20217;-82
2022/03/06 10:00:45;;;;;;;13.40;12.20;;;15.50;76.00;;;;;;1732438;28;20215;-83
2022/03/06 10:01:36;;;;;;;14.20;12.80;;;15.50;75.70;;;;;;1730679;28;20485;-82
2022/03/06 10:02:27;;;;;;;15.13;13.73;;;15.50;75.50;;;;;;1730147;28;20188;-83
2022/03/06 10:03:20;;;;;;;14.13;12.80;;;15.60;75.50;;;;;;1730595;28;20451;-82
2022/03/06 10:04:25;;;;;;;15.52;13.98;;;15.60;75.40;;;;;;1730419;28;20196;-82
2022/03/06 10:05:28;;;;;;;15.70;13.73;;;15.60;75.10;;;;;;1729516;28;20207;-82
2022/03/06 10:06:20;;;;;;;14.57;13.18;;;15.60;74.60;;;;;;1730046;28;21002;-82
2022/03/06 10:07:13;;;;;;;14.40;13.05;;;15.60;74.40;;;;;;1729981;28;20196;-81
2022/03/06 10:08:22;;;;;;;14.35;12.95;;;15.60;74.60;;;;;;1729844;28;20605;-81
2022/03/06 10:09:13;;;;;;;14.75;13.25;;;15.60;74.70;;;;;;1728490;28;20722;-86
2022/03/06 10:10:05;;;;;;;16.27;14.67;;;15.60;74.70;;;;;;1731291;28;20635;-82
2022/03/06 10:10:58;;;;;;;14.40;13.00;;;15.70;74.90;;;;;;1729605;28;20271;-83
2022/03/06 10:11:51;;;;;;;14.73;13.23;;;15.70;74.70;;;;;;1730204;28;20210;-82
2022/03/06 10:12:44;;;;;;;16.35;13.85;;;15.70;74.50;;;;;;1729728;28;20209;-82
2022/03/06 10:13:37;;;;;;;15.25;13.85;;;15.70;74.40;;;;;;1730099;28;20250;-82
2022/03/06 10:14:39;;;;;;;15.60;14.10;;;15.80;74.40;;;;;;1729789;28;20247;-82
2022/03/06 10:15:30;;;;;;;15.38;13.88;;;15.80;74.10;;;;;;1730297;28;20204;-83
2022/03/06 10:16:22;;;;;;;14.40;13.00;;;15.90;74.20;;;;;;1729841;28;20196;-82
2022/03/06 10:17:14;;;;;;;14.65;13.30;;;15.90;74.30;;;;;;1729221;28;20586;-82
2022/03/06 10:18:12;;;;;;;16.10;14.52;;;16.00;74.10;;;;;;1728313;28;20295;-82
2022/03/06 10:19:04;;;;;;;14.15;12.65;;;16.00;73.90;;;;;;1730609;28;20672;-83
2022/03/06 10:19:57;;;;;;;16.52;14.15;;;16.00;73.30;;;;;;1728260;28;20215;-82
2022/03/06 10:20:48;;;;;;;15.70;14.20;;;16.10;73.60;;;;;;1729238;28;21395;-82
2022/03/06 10:21:39;;;;;;;15.23;13.73;;;16.10;73.80;;;;;;1729209;28;20200;-82
2022/03/06 10:22:32;;;;;;;14.87;13.50;;;16.20;73.80;;;;;;1729175;28;20672;-80
2022/03/06 10:23:26;;;;;;;14.05;12.75;;;16.30;73.80;;;;;;1729884;28;20197;-83
2022/03/06 10:24:17;;;;;;;14.80;13.43;;;16.40;73.50;;;;;;1729280;28;20634;-82
2022/03/06 10:25:12;;;;;;;15.25;13.75;;;16.50;73.10;;;;;;1729895;28;20208;-83